Sudbury Airport

CYSB | YSB

Sudbury , Ontario , Canada

Saturday, September 21st, 2019 | 07:53

Weather

CYSB 211100Z 31002KT 7SM R22/3000FT/N MIFG SCT210 12/12 A3018 RMK CI3 VSBY LWR SE SLP224

Charts

No Charts Available

Gates

39 Available

Runways

2 Available

Events

No events for this airport


New event